Time;durP1;ratioP1;P1;durP2;ratioP2;P2;SDS_P1;SDS_P2;PMS_P1;PMS_P2;Temp;Humidity;BMP_temperature;BMP_pressure;BME280_temperature;BME280_humidity;BME280_pressure;Samples;Min_cycle;Max_cycle;Signal;HPM_P1;HPM_P2
2022/06/15 00:00:46;;;;;;;8.00;4.03;;;;;;;18.36;56.99;93044.03;2048150;70;20612;-70
2022/06/15 00:03:13;;;;;;;9.23;4.18;;;;;;;18.25;57.83;93052.22;2044459;70;20155;-70
2022/06/15 00:05:42;;;;;;;5.25;4.03;;;;;;;18.35;56.91;93053.97;2045222;70;20238;-71
2022/06/15 00:08:09;;;;;;;8.70;3.90;;;;;;;18.09;58.67;93048.72;2044936;70;20193;-71
2022/06/15 00:10:36;;;;;;;9.05;3.60;;;;;;;18.26;57.76;93055.78;2044946;70;20146;-72
2022/06/15 00:13:01;;;;;;;6.35;3.50;;;;;;;18.32;57.19;93056.00;2045055;70;20195;-71
2022/06/15 00:15:27;;;;;;;6.22;4.10;;;;;;;18.17;58.24;93054.00;2045087;70;20212;-71
2022/06/15 00:17:53;;;;;;;6.10;3.70;;;;;;;18.19;57.33;93049.13;2045122;70;20235;-71
2022/06/15 00:20:18;;;;;;;6.72;3.67;;;;;;;18.13;57.44;93051.72;2046494;70;20182;-72
2022/06/15 00:22:44;;;;;;;5.47;3.42;;;;;;;18.21;56.96;93049.19;2048336;70;20153;-71
2022/06/15 00:25:10;;;;;;;6.75;4.43;;;;;;;18.08;56.84;93044.41;2048323;70;20154;-71
2022/06/15 00:27:36;;;;;;;7.55;4.00;;;;;;;18.01;57.31;93054.84;2048312;70;20154;-71
2022/06/15 00:30:06;;;;;;;5.43;3.90;;;;;;;17.88;58.25;93044.38;2045014;70;20157;-72
2022/06/15 00:32:32;;;;;;;6.25;3.83;;;;;;;17.66;58.98;93052.72;2048253;70;20200;-72
2022/06/15 00:34:58;;;;;;;7.80;4.03;;;;;;;17.87;58.35;93039.31;2042918;70;20155;-72
2022/06/15 00:37:23;;;;;;;5.78;4.20;;;;;;;17.81;58.90;93039.81;2045022;70;20150;-72
2022/06/15 00:39:49;;;;;;;7.90;4.13;;;;;;;17.80;57.81;93046.91;2041591;70;20200;-71
2022/06/15 00:42:15;;;;;;;7.32;3.80;;;;;;;17.83;58.35;93042.75;2044891;70;20143;-72
2022/06/15 00:44:42;;;;;;;10.75;3.85;;;;;;;17.81;58.19;93048.34;2044867;70;20162;-71
2022/06/15 00:47:31;;;;;;;6.22;3.80;;;;;;;17.68;59.54;93040.69;2044737;70;20170;-70
2022/06/15 00:50:01;;;;;;;5.80;3.95;;;;;;;17.66;59.04;93040.63;2041386;70;20151;-70
2022/06/15 00:52:36;;;;;;;6.07;3.60;;;;;;;17.70;58.74;93043.63;2044985;70;20158;-70
2022/06/15 00:55:06;;;;;;;6.03;3.90;;;;;;;17.71;58.24;93037.28;2041722;70;20230;-70
2022/06/15 00:57:32;;;;;;;5.80;4.05;;;;;;;17.62;58.08;93043.28;2045126;70;20174;-70
2022/06/15 01:00:00;;;;;;;7.60;3.97;;;;;;;17.67;58.80;93045.66;2044787;70;20147;-70
2022/06/15 01:02:27;;;;;;;6.55;3.90;;;;;;;17.56;58.71;93043.06;2041590;70;20154;-70
2022/06/15 01:05:25;;;;;;;7.45;4.10;;;;;;;17.45;59.88;93039.06;2042608;70;20150;-70
2022/06/15 01:08:09;;;;;;;4.57;3.78;;;;;;;17.45;59.49;93041.91;2045116;70;20143;-70
2022/06/15 01:10:37;;;;;;;9.13;4.50;;;;;;;16.71;61.95;93047.31;2045461;70;20151;-70
2022/06/15 01:13:21;;;;;;;7.20;4.53;;;;;;;17.23;59.46;93047.44;2042195;70;20509;-70
2022/06/15 01:15:55;;;;;;;7.32;4.28;;;;;;;17.15;60.40;93047.81;2058156;69;20159;-71
2022/06/15 01:18:39;;;;;;;10.55;4.28;;;;;;;17.36;59.34;93040.84;2045736;69;20572;-71
2022/06/15 01:21:36;;;;;;;7.68;4.10;;;;;;;17.36;59.03;93040.84;2045452;70;20151;-70
2022/06/15 01:24:08;;;;;;;6.07;3.70;;;;;;;17.29;60.30;93036.28;2044772;70;20540;-71
2022/06/15 01:26:56;;;;;;;7.67;4.43;;;;;;;17.20;58.76;93040.91;2045371;70;20150;-70
2022/06/15 01:29:52;;;;;;;5.35;3.88;;;;;;;17.19;58.32;93042.28;2045436;70;20248;-70
2022/06/15 01:32:31;;;;;;;7.13;4.25;;;;;;;17.09;60.17;93030.50;2041859;70;20169;-72
2022/06/15 01:35:11;;;;;;;6.97;4.35;;;;;;;17.25;58.72;93045.38;2041616;70;20147;-72
2022/06/15 01:37:48;;;;;;;8.30;3.95;;;;;;;17.32;58.10;93039.94;2042065;70;20151;-72
2022/06/15 01:40:21;;;;;;;5.32;3.85;;;;;;;17.24;59.03;93037.50;2042705;70;20191;-71
2022/06/15 01:42:54;;;;;;;5.95;3.72;;;;;;;17.21;58.19;93033.09;2041878;70;20239;-71
2022/06/15 01:45:26;;;;;;;8.52;4.40;;;;;;;17.13;59.36;93029.91;2041715;70;20186;-70
2022/06/15 01:47:56;;;;;;;7.50;4.13;;;;;;;17.13;59.20;93029.91;2041928;70;20206;-71
2022/06/15 01:50:32;;;;;;;7.10;3.97;;;;;;;17.08;59.27;93029.00;2042051;70;20194;-70
2022/06/15 01:53:02;;;;;;;6.20;4.30;;;;;;;17.07;58.88;93033.25;2045018;70;20139;-71
2022/06/15 01:56:03;;;;;;;5.38;3.80;;;;;;;17.09;59.22;93029.75;2039332;70;20220;-71
2022/06/15 01:58:33;;;;;;;8.23;4.47;;;;;;;16.94;60.13;93034.09;2040499;70;20159;-71
2022/06/15 02:01:20;;;;;;;6.00;4.03;;;;;;;16.94;59.33;93034.84;2041911;70;20254;-71
2022/06/15 02:04:13;;;;;;;7.72;4.03;;;;;;;17.01;58.78;93036.56;2041983;70;20217;-71
2022/06/15 02:06:48;;;;;;;5.60;3.50;;;;;;;17.27;56.98;93025.56;2041916;70;20732;-72
2022/06/15 02:09:15;;;;;;;5.30;3.38;;;;;;;17.24;56.93;93028.97;2045150;70;20601;-71
2022/06/15 02:11:44;;;;;;;5.30;3.95;;;;;;;17.14;56.48;93039.94;2045103;70;20139;-72
2022/06/15 02:14:22;;;;;;;5.72;3.67;;;;;;;17.27;56.17;93030.50;2045076;70;20162;-71
2022/06/15 02:17:01;;;;;;;4.82;4.07;;;;;;;17.22;56.06;93029.59;2045016;70;20154;-72
2022/06/15 02:19:42;;;;;;;5.32;3.80;;;;;;;17.22;56.19;93026.03;2045110;70;20161;-70
2022/06/15 02:22:19;;;;;;;6.45;3.42;;;;;;;17.27;55.65;93022.72;2043074;70;20173;-70
2022/06/15 02:24:50;;;;;;;4.68;3.60;;;;;;;17.02;58.29;93025.91;2044958;70;20182;-70
2022/06/15 02:27:18;;;;;;;6.13;3.70;;;;;;;16.93;58.19;93019.16;2041705;70;20212;-70
2022/06/15 02:29:55;;;;;;;5.57;3.33;;;;;;;16.96;59.08;93017.88;2041742;70;20305;-71
2022/06/15 02:32:24;;;;;;;6.47;3.58;;;;;;;16.93;58.20;93021.28;2045146;70;20167;-70
2022/06/15 02:34:49;;;;;;;5.20;3.45;;;;;;;16.91;57.31;93029.72;2041819;70;20195;-70
2022/06/15 02:37:16;;;;;;;4.85;3.40;;;;;;;17.01;56.74;93018.78;2041512;70;20154;-71
2022/06/15 02:39:42;;;;;;;5.82;3.20;;;;;;;17.06;56.80;93023.25;2041718;70;20244;-71
2022/06/15 02:42:24;;;;;;;6.57;3.92;;;;;;;17.11;55.58;93018.47;2057895;69;20166;-70
2022/06/15 02:45:02;;;;;;;4.75;3.35;;;;;;;16.98;56.96;93017.94;2041705;70;20150;-70
2022/06/15 02:47:32;;;;;;;4.93;3.30;;;;;;;17.06;57.53;93025.38;2041676;70;20147;-71
2022/06/15 02:50:00;;;;;;;5.28;3.58;;;;;;;16.93;58.59;93021.28;2045052;70;20520;-70
2022/06/15 02:52:38;;;;;;;6.10;3.60;;;;;;;16.93;58.49;93018.44;2042010;69;20217;-71
2022/06/15 02:55:07;;;;;;;6.22;3.88;;;;;;;16.57;59.31;93018.28;2041439;70;20434;-71
2022/06/15 02:58:02;;;;;;;5.40;3.80;;;;;;;16.48;59.42;93020.03;2041313;70;20155;-70
2022/06/15 03:00:34;;;;;;;8.18;3.65;;;;;;;16.53;59.61;93032.31;2044748;70;20234;-70
2022/06/15 03:03:02;;;;;;;7.07;3.90;;;;;;;16.42;59.93;93028.31;2041579;70;20151;-70
2022/06/15 03:05:27;;;;;;;5.88;3.63;;;;;;;16.55;59.08;93029.56;2044973;70;20146;-70
2022/06/15 03:07:53;;;;;;;7.05;3.80;;;;;;;16.37;59.73;93025.94;2041483;70;20210;-71
2022/06/15 03:10:19;;;;;;;6.68;3.90;;;;;;;16.51;59.52;93026.56;2043397;69;20213;-71
2022/06/15 03:12:45;;;;;;;7.43;3.80;;;;;;;16.67;58.83;93029.34;2041646;70;20182;-71
2022/06/15 03:15:12;;;;;;;4.78;3.38;;;;;;;16.64;58.81;93033.50;2041567;69;20162;-70
2022/06/15 03:17:38;;;;;;;6.88;3.90;;;;;;;16.74;57.55;93031.84;2041743;70;20209;-70
2022/06/15 03:20:08;;;;;;;4.13;3.38;;;;;;;16.75;56.95;93024.78;2038908;70;20158;-71
2022/06/15 03:22:34;;;;;;;6.68;3.83;;;;;;;16.90;55.67;93026.13;2044245;70;20607;-72
2022/06/15 03:25:05;;;;;;;7.13;4.20;;;;;;;16.78;57.02;93022.78;2044988;70;20157;-71
2022/06/15 03:27:31;;;;;;;6.10;3.90;;;;;;;16.87;55.71;93027.44;2044892;70;20281;-72
2022/06/15 03:29:58;;;;;;;5.68;3.60;;;;;;;16.84;56.90;93028.00;2045032;70;20154;-72
2022/06/15 03:32:29;;;;;;;5.63;3.45;;;;;;;16.69;57.27;93020.94;2042759;70;20150;-73
2022/06/15 03:35:02;;;;;;;5.20;3.72;;;;;;;16.57;57.63;93028.94;2045201;70;20182;-74
2022/06/15 03:37:31;;;;;;;3.85;3.45;;;;;;;16.75;56.44;93032.59;2045205;70;20304;-72
2022/06/15 03:40:12;;;;;;;6.28;3.40;;;;;;;16.68;57.52;93033.69;2045357;70;20182;-72
2022/06/15 03:42:42;;;;;;;6.78;3.70;;;;;;;16.68;57.94;93030.84;2044331;70;20624;-72
2022/06/15 03:45:12;;;;;;;5.75;3.80;;;;;;;16.66;57.10;93042.84;2041786;70;20153;-71
2022/06/15 03:47:39;;;;;;;6.25;4.28;;;;;;;16.57;57.79;93041.03;2041863;70;20159;-72
2022/06/15 03:50:06;;;;;;;6.72;3.88;;;;;;;16.60;58.03;93036.16;2041890;70;20689;-71
2022/06/15 03:52:33;;;;;;;8.13;3.97;;;;;;;16.56;58.15;93033.88;2041788;70;20159;-72
2022/06/15 03:54:59;;;;;;;5.00;3.50;;;;;;;16.57;58.41;93034.59;2055298;69;20192;-72
2022/06/15 03:57:24;;;;;;;6.57;3.63;;;;;;;16.59;56.60;93032.59;2043867;70;20154;-71
2022/06/15 03:59:52;;;;;;;6.05;3.33;;;;;;;16.54;56.33;93028.13;2045365;70;20165;-72
2022/06/15 04:02:47;;;;;;;4.85;3.85;;;;;;;16.75;55.55;93035.44;2048362;70;20245;-72
2022/06/15 04:05:24;;;;;;;4.15;3.50;;;;;;;16.71;56.10;93035.97;2045171;70;20143;-71
2022/06/15 04:10:36;;;;;;;4.93;3.40;;;;;;;16.73;57.03;93038.19;2044923;70;20216;-71
2022/06/15 04:13:05;;;;;;;4.60;3.22;;;;;;;16.79;55.20;93027.09;2048533;70;20138;-72
2022/06/15 04:15:31;;;;;;;4.55;3.40;;;;;;;16.84;54.75;93025.16;2045086;70;20639;-72
2022/06/15 04:17:57;;;;;;;3.90;3.40;;;;;;;16.59;56.23;93034.72;2045257;70;20702;-72
2022/06/15 04:20:40;;;;;;;4.35;3.22;;;;;;;16.70;56.79;93033.75;2058832;69;20178;-71
2022/06/15 04:23:14;;;;;;;7.45;3.60;;;;;;;16.65;55.75;93038.53;2045431;70;20194;-71
2022/06/15 04:25:48;;;;;;;6.18;3.85;;;;;;;16.66;57.50;93042.84;2044712;70;20194;-72
2022/06/15 04:28:16;;;;;;;6.53;3.65;;;;;;;16.70;56.83;93036.59;2048362;70;20293;-73
2022/06/15 04:30:46;;;;;;;5.18;3.03;;;;;;;16.79;56.32;93037.72;2045052;70;20293;-72
2022/06/15 04:33:12;;;;;;;4.28;3.22;;;;;;;16.64;57.67;93047.72;2045119;70;20178;-73
2022/06/15 04:35:38;;;;;;;6.13;3.60;;;;;;;16.38;59.26;93042.31;2045077;70;20221;-73
2022/06/15 04:38:10;;;;;;;5.43;3.80;;;;;;;16.58;57.69;93041.75;2044336;70;20238;-72
2022/06/15 04:40:45;;;;;;;6.60;4.10;;;;;;;16.61;58.36;93040.47;2039845;70;20181;-74
2022/06/15 04:43:11;;;;;;;4.38;3.30;;;;;;;16.47;59.04;93046.25;2045469;70;20145;-72
2022/06/15 04:45:37;;;;;;;7.35;3.95;;;;;;;16.45;58.85;93040.50;2045407;70;20175;-73
2022/06/15 04:48:14;;;;;;;9.73;3.35;;;;;;;16.61;57.02;93044.03;2045652;70;20630;-73
2022/06/15 04:50:41;;;;;;;7.32;3.80;;;;;;;16.61;57.19;93041.22;2045374;70;20151;-74
2022/06/15 04:53:08;;;;;;;4.88;3.42;;;;;;;16.66;56.69;93036.44;2045560;70;20561;-72
2022/06/15 04:55:34;;;;;;;5.57;3.80;;;;;;;16.62;57.74;93033.41;2045272;70;20242;-74
2022/06/15 04:58:03;;;;;;;5.43;3.47;;;;;;;16.64;58.01;93036.34;2042793;70;20228;-73
2022/06/15 05:00:36;;;;;;;7.00;3.58;;;;;;;16.73;57.75;93030.41;2045330;70;20155;-73
2022/06/15 05:03:03;;;;;;;3.90;3.17;;;;;;;16.64;58.49;93025.72;2048712;70;20254;-73
2022/06/15 05:05:29;;;;;;;6.30;3.72;;;;;;;16.65;57.12;93020.75;2045495;70;20334;-73
2022/06/15 05:07:55;;;;;;;5.88;3.30;;;;;;;16.73;55.68;93024.72;2048705;70;20208;-73
2022/06/15 05:10:23;;;;;;;5.05;3.50;;;;;;;16.70;56.77;93025.97;2044530;70;20162;-73
2022/06/15 05:12:51;;;;;;;5.55;3.50;;;;;;;16.73;55.63;93024.72;2042188;70;20312;-73
2022/06/15 05:15:19;;;;;;;4.10;3.25;;;;;;;16.74;56.38;93026.19;2042148;70;20155;-72
2022/06/15 05:17:48;;;;;;;5.60;3.25;;;;;;;16.79;56.58;93027.09;2042217;70;20159;-73
2022/06/15 05:20:19;;;;;;;4.60;3.20;;;;;;;16.77;54.95;93024.16;2042214;70;20151;-73
2022/06/15 05:22:53;;;;;;;5.82;3.42;;;;;;;16.79;55.15;93029.94;2042022;70;20211;-74
2022/06/15 05:25:23;;;;;;;4.35;3.38;;;;;;;16.95;53.55;93030.63;2042737;70;20212;-74
2022/06/15 05:27:49;;;;;;;4.47;3.42;;;;;;;16.85;55.26;93035.13;2045423;70;20155;-74
2022/06/15 05:30:16;;;;;;;4.38;3.30;;;;;;;16.88;56.40;93026.06;2045421;70;20162;-73
2022/06/15 05:32:42;;;;;;;5.75;3.42;;;;;;;16.95;56.27;93030.63;2042108;70;20198;-74
2022/06/15 05:35:08;;;;;;;4.13;3.53;;;;;;;16.90;56.07;93031.09;2042190;70;20128;-72
2022/06/15 05:37:35;;;;;;;4.47;3.33;;;;;;;16.91;55.11;93021.19;2039416;70;20246;-73
2022/06/15 05:40:04;;;;;;;6.10;3.60;;;;;;;16.74;55.07;93022.59;2042587;70;20150;-71
2022/06/15 05:42:30;;;;;;;6.00;3.70;;;;;;;16.86;54.17;93017.44;2042103;70;20153;-74
2022/06/15 05:45:02;;;;;;;4.78;3.78;;;;;;;16.61;55.83;93024.16;2042088;70;20155;-75
2022/06/15 05:47:30;;;;;;;5.47;3.10;;;;;;;17.21;53.77;93019.59;2039151;70;20147;-75
2022/06/15 05:50:12;;;;;;;4.97;3.58;;;;;;;17.33;54.60;93016.53;2042046;70;20212;-75
2022/06/15 05:52:47;;;;;;;5.88;3.55;;;;;;;17.45;54.96;93017.00;2044794;70;20234;-74
2022/06/15 05:55:14;;;;;;;4.35;3.63;;;;;;;17.53;53.59;93013.78;2046865;70;20178;-74
2022/06/15 05:57:40;;;;;;;8.63;3.30;;;;;;;17.54;55.71;93013.13;2048564;70;20622;-75
2022/06/15 06:00:09;;;;;;;4.15;3.08;;;;;;;17.62;54.84;93012.72;2048436;70;20162;-73
2022/06/15 06:02:42;;;;;;;6.32;3.15;;;;;;;17.73;56.10;93011.00;2048630;70;20178;-74
2022/06/15 06:05:08;;;;;;;6.18;3.22;;;;;;;17.80;54.39;93014.84;2048860;70;20181;-71
2022/06/15 06:07:33;;;;;;;5.75;3.30;;;;;;;17.77;55.65;93011.19;2048706;70;20139;-74
2022/06/15 06:09:59;;;;;;;5.13;3.10;;;;;;;17.64;57.91;93020.59;2046341;70;20174;-75
2022/06/15 06:12:25;;;;;;;8.80;3.28;;;;;;;17.72;57.05;93018.81;2045555;70;20228;-75
2022/06/15 06:14:53;;;;;;;3.78;3.42;;;;;;;17.71;58.43;93025.88;2045403;70;20211;-73
2022/06/15 06:17:20;;;;;;;5.10;3.20;;;;;;;17.76;58.77;93019.00;2045305;70;20673;-72
2022/06/15 06:19:45;;;;;;;3.92;3.33;;;;;;;17.81;57.87;93017.03;2045318;70;20150;-75
2022/06/15 06:22:11;;;;;;;3.90;3.40;;;;;;;17.88;57.08;93012.31;2045418;70;20229;-72
2022/06/15 06:24:36;;;;;;;5.40;3.03;;;;;;;17.93;54.70;93008.97;2046111;70;20154;-71
2022/06/15 06:27:05;;;;;;;5.15;3.25;;;;;;;18.11;54.25;93014.63;2048736;70;20208;-73
2022/06/15 06:29:31;;;;;;;4.45;3.40;;;;;;;18.15;55.23;93011.22;2048608;70;20162;-74
2022/06/15 06:31:58;;;;;;;5.93;3.40;;;;;;;18.34;54.80;93010.50;2048444;70;20145;-73
2022/06/15 06:34:25;;;;;;;5.35;3.30;;;;;;;18.44;52.90;93010.13;2045332;70;20547;-72
2022/06/15 06:36:52;;;;;;;4.30;3.20;;;;;;;18.62;53.28;93007.22;2061506;69;20493;-73
2022/06/15 06:39:22;;;;;;;3.33;3.00;;;;;;;18.67;54.32;93012.41;2046954;70;20220;-72
2022/06/15 06:41:48;;;;;;;4.70;2.90;;;;;;;18.68;52.88;93007.44;2048393;70;20179;-71
2022/06/15 06:44:14;;;;;;;3.45;3.10;;;;;;;18.81;57.08;93003.66;2048145;70;20146;-75
2022/06/15 06:46:43;;;;;;;4.50;3.20;;;;;;;18.97;55.72;93007.06;2045196;70;20281;-75
2022/06/15 06:49:10;;;;;;;4.90;3.40;;;;;;;19.01;54.51;93010.06;2045309;70;20163;-72
2022/06/15 06:51:38;;;;;;;4.43;3.20;;;;;;;19.06;55.05;93008.09;2045378;70;20223;-75
2022/06/15 06:54:05;;;;;;;4.50;3.58;;;;;;;19.09;53.63;93011.72;2045298;70;20147;-74
2022/06/15 06:56:34;;;;;;;3.60;3.10;;;;;;;19.23;55.98;93012.22;2048206;70;20251;-72
2022/06/15 06:59:00;;;;;;;5.50;3.35;;;;;;;19.26;55.09;92996.63;2045410;69;20143;-72
2022/06/15 07:01:26;;;;;;;6.07;3.40;;;;;;;19.41;54.29;93000.66;2047222;70;20151;-72
2022/06/15 07:03:53;;;;;;;4.82;3.60;;;;;;;19.47;55.04;93001.59;2048541;70;20555;-75
2022/06/15 07:06:18;;;;;;;3.67;3.15;;;;;;;19.61;55.27;93001.38;2048565;70;20600;-74
2022/06/15 07:08:44;;;;;;;3.38;2.80;;;;;;;19.68;55.18;93005.88;2048451;70;20154;-76
2022/06/15 07:11:13;;;;;;;3.42;3.08;;;;;;;19.79;55.23;93010.50;2048802;70;20192;-75
2022/06/15 07:13:39;;;;;;;5.30;3.15;;;;;;;19.84;55.05;93002.06;2048428;70;20541;-74
2022/06/15 07:16:06;;;;;;;4.45;3.20;;;;;;;20.03;54.59;92999.09;2047288;70;20264;-69
2022/06/15 07:18:32;;;;;;;6.10;3.10;;;;;;;20.03;55.53;93007.69;2048071;70;20162;-69
2022/06/15 07:21:05;;;;;;;4.68;3.10;;;;;;;20.06;56.01;93000.59;2048262;70;20195;-71
2022/06/15 07:23:32;;;;;;;6.65;3.20;;;;;;;20.13;54.58;93000.81;2048401;70;20685;-70
2022/06/15 07:26:03;;;;;;;3.45;2.90;;;;;;;20.14;52.86;93011.56;2046916;70;20665;-70
2022/06/15 07:28:29;;;;;;;3.60;3.00;;;;;;;20.29;54.31;93012.72;2045188;70;20605;-71
2022/06/15 07:30:55;;;;;;;5.10;3.55;;;;;;;20.37;53.76;93015.09;2045097;70;20138;-75
2022/06/15 07:33:21;;;;;;;5.05;3.08;;;;;;;20.41;53.94;93015.94;2045290;70;20677;-72
2022/06/15 07:35:46;;;;;;;4.93;2.60;;;;;;;20.47;53.38;93013.28;2046383;70;20198;-69
2022/06/15 07:38:12;;;;;;;5.28;3.00;;;;;;;20.52;51.58;93008.41;2048192;70;20169;-71
2022/06/15 07:40:38;;;;;;;8.30;2.88;;;;;;;20.55;53.87;92996.34;2048229;70;20158;-74
2022/06/15 07:43:04;;;;;;;6.05;2.92;;;;;;;20.60;50.88;92985.75;2048112;70;20517;-74
2022/06/15 07:45:29;;;;;;;4.90;3.35;;;;;;;20.62;55.04;92985.06;2047204;70;20154;-72
2022/06/15 07:50:42;;;;;;;3.75;3.10;;;;;;;20.74;53.54;92979.72;2048651;70;20150;-73
2022/06/15 07:53:12;;;;;;;3.38;3.00;;;;;;;20.72;52.03;92974.66;2048528;70;20150;-75
2022/06/15 07:55:43;;;;;;;3.33;3.03;;;;;;;20.71;52.10;92981.78;2048262;70;20502;-72
2022/06/15 07:58:09;;;;;;;4.85;3.08;;;;;;;20.75;53.08;92981.16;2047976;70;20515;-71
2022/06/15 08:00:37;;;;;;;5.05;3.17;;;;;;;20.59;52.55;92980.72;2048035;70;20138;-72
2022/06/15 08:03:04;;;;;;;3.95;3.05;;;;;;;20.73;54.60;92984.69;2048371;70;20174;-72
2022/06/15 08:05:35;;;;;;;4.40;2.97;;;;;;;20.83;52.61;92981.38;2048034;70;20578;-72
2022/06/15 08:08:03;;;;;;;4.28;3.00;;;;;;;20.87;51.91;92978.63;2048445;70;20154;-75
2022/06/15 08:10:29;;;;;;;3.33;3.03;;;;;;;20.82;53.64;92971.34;2045280;70;20143;-74
2022/06/15 08:12:55;;;;;;;3.75;2.90;;;;;;;20.95;52.93;92967.41;2048333;70;20255;-75
2022/06/15 08:15:22;;;;;;;3.40;2.58;;;;;;;20.93;51.51;92967.34;2046167;70;20208;-70
2022/06/15 08:18:02;;;;;;;5.43;3.10;;;;;;;21.07;54.22;92955.53;2048058;70;20257;-71
2022/06/15 08:20:36;;;;;;;5.43;2.60;;;;;;;21.16;52.44;92951.47;2047496;70;20155;-70
2022/06/15 08:23:15;;;;;;;3.05;2.67;;;;;;;21.20;53.41;92953.72;2048189;70;20174;-72
2022/06/15 08:25:45;;;;;;;5.28;2.88;;;;;;;21.31;53.62;92946.88;2045373;70;20175;-69
2022/06/15 08:28:14;;;;;;;4.15;2.83;;;;;;;21.16;47.20;92940.03;2048237;70;20169;-70
2022/06/15 08:30:40;;;;;;;3.33;2.97;;;;;;;21.43;48.88;92941.44;2048219;70;20170;-71
2022/06/15 08:33:08;;;;;;;4.68;3.28;;;;;;;21.65;48.12;92938.38;2048274;70;20548;-73
2022/06/15 08:35:38;;;;;;;5.90;2.95;;;;;;;21.83;49.85;92943.81;2048051;70;20211;-73
2022/06/15 08:38:06;;;;;;;3.40;2.95;;;;;;;21.88;49.84;92941.75;2048541;70;20170;-74
2022/06/15 08:40:41;;;;;;;4.13;2.88;;;;;;;21.88;51.04;92950.38;2048203;70;20377;-73
2022/06/15 08:43:36;;;;;;;5.97;2.90;;;;;;;22.20;51.13;92953.25;2048282;70;20579;-71
2022/06/15 08:46:17;;;;;;;6.00;2.97;;;;;;;22.44;52.21;92955.91;2047714;69;20608;-73
2022/06/15 08:49:14;;;;;;;3.78;3.00;;;;;;;22.49;52.41;92948.81;2048111;70;20162;-71
2022/06/15 08:51:43;;;;;;;4.65;2.80;;;;;;;22.79;52.11;92943.69;2048194;70;20501;-70
2022/06/15 08:54:24;;;;;;;4.30;3.45;;;;;;;22.95;47.02;92934.69;2047814;70;20155;-74
2022/06/15 08:57:04;;;;;;;5.47;3.30;;;;;;;22.95;46.83;92931.09;2045761;70;20162;-76
2022/06/15 08:59:57;;;;;;;5.40;3.47;;;;;;;23.39;46.98;92925.41;2042428;70;20226;-77
2022/06/15 09:02:28;;;;;;;5.40;3.25;;;;;;;23.36;42.80;92931.81;2047995;70;20167;-70
2022/06/15 09:04:57;;;;;;;3.17;2.60;;;;;;;23.77;43.19;92922.44;2048503;70;20154;-70
2022/06/15 09:07:59;;;;;;;4.93;2.75;;;;;;;23.95;43.04;92921.97;2048744;70;20220;-73
2022/06/15 09:10:59;;;;;;;4.07;2.83;;;;;;;24.43;44.23;92926.97;2060718;69;20157;-70
2022/06/15 09:14:12;;;;;;;3.15;2.58;;;;;;;23.95;42.14;92919.09;2061464;69;20185;-77
2022/06/15 09:16:53;;;;;;;3.30;2.72;;;;;;;24.42;41.50;92919.03;2058968;69;20160;-72
2022/06/15 09:19:59;;;;;;;4.82;2.70;;;;;;;24.66;40.67;92921.50;2058057;69;20230;-70
2022/06/15 09:22:32;;;;;;;3.42;2.55;;;;;;;24.81;39.36;92903.69;2057563;69;20149;-72
2022/06/15 09:25:10;;;;;;;9.15;2.80;;;;;;;25.39;38.98;92916.53;2058295;69;20253;-71
2022/06/15 09:27:44;;;;;;;4.25;2.53;;;;;;;25.51;39.68;92913.72;2061652;69;20141;-74
2022/06/15 09:30:23;;;;;;;2.70;2.20;;;;;;;25.46;38.81;92909.38;2061453;69;20173;-70
2022/06/15 09:32:57;;;;;;;4.80;2.50;;;;;;;26.16;37.22;92915.66;2061370;69;20674;-71
2022/06/15 09:35:32;;;;;;;4.25;2.63;;;;;;;26.46;37.43;92915.13;2062017;69;20150;-70
2022/06/15 09:38:01;;;;;;;4.72;2.85;;;;;;;26.48;36.84;92909.34;2061964;69;20137;-70
2022/06/15 09:40:41;;;;;;;4.65;2.63;;;;;;;25.88;36.73;92902.50;2061945;69;20684;-70
2022/06/15 09:43:10;;;;;;;5.30;2.83;;;;;;;25.90;37.10;92890.28;2061505;69;20215;-69
2022/06/15 09:46:02;;;;;;;3.70;2.85;;;;;;;26.20;36.76;92886.81;2060078;69;20219;-68
2022/06/15 09:48:47;;;;;;;4.35;2.75;;;;;;;26.74;36.56;92882.75;2061036;69;20157;-70
2022/06/15 09:51:33;;;;;;;5.35;2.90;;;;;;;26.86;36.16;92888.56;2061917;69;20221;-70
2022/06/15 09:54:18;;;;;;;3.17;2.90;;;;;;;27.06;35.93;92893.66;2062052;69;20137;-71
2022/06/15 09:56:44;;;;;;;3.20;2.85;;;;;;;27.68;34.70;92883.66;2061359;69;20615;-74
2022/06/15 09:59:14;;;;;;;5.25;2.90;;;;;;;28.13;34.77;92883.59;2061894;69;20145;-74
2022/06/15 10:01:45;;;;;;;5.22;2.95;;;;;;;27.76;34.92;92880.03;2061270;69;20233;-71
2022/06/15 10:04:29;;;;;;;3.53;2.85;;;;;;;28.17;33.94;92888.66;2058491;69;20152;-71
2022/06/15 10:06:59;;;;;;;5.72;3.00;;;;;;;28.34;35.03;92882.13;2058573;69;20153;-72
2022/06/15 10:09:29;;;;;;;4.28;2.80;;;;;;;28.45;33.62;92879.91;2049965;69;20548;-70
2022/06/15 10:12:55;;;;;;;4.25;3.05;;;;;;;27.93;35.23;92877.84;2045715;70;20151;-70
2022/06/15 10:14:47;;;;;;;4.28;3.35;;;;;;;27.30;35.56;92876.38;2047078;70;20155;-70
2022/06/15 10:17:28;;;;;;;5.07;3.22;;;;;;;27.92;35.14;92868.47;2047731;70;20213;-70
2022/06/15 10:19:56;;;;;;;3.72;3.10;;;;;;;28.72;35.38;92874.03;2048165;70;20151;-70
2022/06/15 10:22:32;;;;;;;5.75;3.38;;;;;;;29.16;32.87;92873.09;2048990;70;20138;-69
2022/06/15 10:24:59;;;;;;;3.38;2.90;;;;;;;28.45;34.12;92859.66;2049165;70;20458;-70
2022/06/15 10:27:29;;;;;;;4.95;3.05;;;;;;;29.51;33.26;92855.47;2049061;70;20519;-71
2022/06/15 10:30:16;;;;;;;5.82;3.10;;;;;;;29.53;31.89;92852.53;2049018;70;20355;-76
2022/06/15 10:33:00;;;;;;;3.28;2.97;;;;;;;29.45;32.49;92855.50;2048840;70;20223;-71
2022/06/15 10:35:30;;;;;;;4.00;3.05;;;;;;;29.67;30.90;92858.25;2048553;70;20157;-72
2022/06/15 10:38:01;;;;;;;3.67;3.10;;;;;;;30.20;30.64;92842.56;2049179;70;20154;-71
2022/06/15 10:40:38;;;;;;;7.47;3.00;;;;;;;30.82;31.09;92846.19;2048813;70;20269;-72
2022/06/15 10:43:06;;;;;;;3.38;2.95;;;;;;;31.92;30.72;92849.66;2048937;70;20664;-72
2022/06/15 10:45:40;;;;;;;4.95;3.17;;;;;;;32.54;30.77;92842.00;2048691;70;20204;-77
2022/06/15 10:48:20;;;;;;;3.25;2.80;;;;;;;33.63;31.46;92841.13;2048748;70;20199;-71
2022/06/15 10:51:10;;;;;;;5.90;2.47;;;;;;;34.54;29.74;92842.47;2048991;70;20167;-77
2022/06/15 10:53:52;;;;;;;4.15;2.53;;;;;;;35.52;26.23;92842.59;2048954;70;20155;-72
2022/06/15 11:02:31;;;;;;;4.15;2.50;;;;;;;35.14;25.33;92819.59;2048938;70;20680;-73
2022/06/15 11:05:06;;;;;;;4.38;2.30;;;;;;;38.39;22.75;92832.09;2046076;70;20216;-72
2022/06/15 11:07:47;;;;;;;3.22;2.28;;;;;;;42.11;21.83;92846.91;2045682;70;20143;-73
2022/06/15 11:10:36;;;;;;;2.95;2.30;;;;;;;40.34;20.96;92829.78;2045616;70;20173;-73
2022/06/15 11:13:04;;;;;;;4.47;2.20;;;;;;;42.72;18.71;92844.91;2045802;70;20615;-76
2022/06/15 11:18:37;;;;;;;3.60;2.13;;;;;;;38.34;22.16;92827.91;2046068;70;20142;-76
2022/06/15 11:21:12;;;;;;;3.90;2.20;;;;;;;39.92;21.88;92826.69;2045323;70;20266;-74
2022/06/15 11:24:11;;;;;;;2.60;2.00;;;;;;;43.74;20.11;92830.47;2045539;70;20211;-72
2022/06/15 11:26:57;;;;;;;3.55;1.95;;;;;;;41.12;16.00;92826.50;2042259;70;20163;-71
2022/06/15 11:29:26;;;;;;;3.95;1.75;;;;;;;44.94;13.63;92830.72;2045485;70;20194;-70
2022/06/15 11:31:54;;;;;;;5.65;1.73;;;;;;;43.52;14.13;92820.72;2042123;70;20214;-72
2022/06/15 11:34:24;;;;;;;8.10;1.80;;;;;;;43.25;14.37;92823.91;2045146;70;20234;-70
2022/06/15 11:37:13;;;;;;;5.35;2.15;;;;;;;44.03;13.62;92822.69;2045317;70;20257;-70
2022/06/15 11:39:46;;;;;;;5.18;1.65;;;;;;;47.13;11.72;92828.19;2045217;70;20234;-70
2022/06/15 11:42:15;;;;;;;5.13;1.73;;;;;;;44.38;11.92;92815.91;2045243;70;20170;-71
2022/06/15 11:44:44;;;;;;;5.95;1.73;;;;;;;47.00;11.29;92827.03;2045524;70;20154;-71
2022/06/15 11:47:20;;;;;;;3.72;1.50;;;;;;;46.73;11.53;92820.09;2045102;70;20201;-75
2022/06/15 11:50:07;;;;;;;7.32;1.92;;;;;;;47.94;10.82;92826.34;2047267;70;20146;-72
2022/06/15 11:53:07;;;;;;;6.40;1.60;;;;;;;49.46;10.74;92824.13;2045335;70;20182;-73
2022/06/15 11:56:13;;;;;;;4.25;1.70;;;;;;;48.51;10.86;92817.97;2045151;70;20646;-72
2022/06/15 11:59:05;;;;;;;5.75;1.48;;;;;;;49.90;9.41;92818.78;2028062;70;20149;-74
2022/06/15 12:01:57;;;;;;;6.85;1.80;;;;;;;47.28;11.25;92815.88;2025238;70;20736;-74
2022/06/15 12:04:40;;;;;;;12.65;2.22;;;;;;;44.18;13.60;92804.69;2027607;70;20192;-74
2022/06/15 12:07:29;;;;;;;5.15;1.75;;;;;;;40.66;15.45;92792.00;2027114;70;20159;-77
2022/06/15 12:10:21;;;;;;;6.07;1.70;;;;;;;39.05;15.42;92791.72;2027907;70;20161;-76
2022/06/15 12:13:01;;;;;;;5.18;1.70;;;;;;;38.22;15.60;92778.44;2028071;70;20137;-76
2022/06/15 12:15:45;;;;;;;9.77;1.90;;;;;;;37.77;15.67;92783.22;2030945;70;20172;-76